sensor_id;sensor_type;location;lat;lon;timestamp;P1;durP1;ratioP1;P2;durP2;ratioP2
17451;SDS011;8843;48.838;9.324;2023-11-19T00:02:18;2.10;;;2.00;;
17451;SDS011;8843;48.838;9.324;2023-11-19T00:04:45;2.37;;;2.10;;
17451;SDS011;8843;48.838;9.324;2023-11-19T00:07:12;2.17;;;1.97;;
17451;SDS011;8843;48.838;9.324;2023-11-19T00:09:39;3.47;;;2.00;;
17451;SDS011;8843;48.838;9.324;2023-11-19T00:12:06;2.47;;;2.27;;
17451;SDS011;8843;48.838;9.324;2023-11-19T00:14:35;1.83;;;1.73;;
17451;SDS011;8843;48.838;9.324;2023-11-19T00:17:01;2.17;;;1.87;;
17451;SDS011;8843;48.838;9.324;2023-11-19T00:19:29;3.60;;;1.87;;
17451;SDS011;8843;48.838;9.324;2023-11-19T00:21:56;3.27;;;2.13;;
17451;SDS011;8843;48.838;9.324;2023-11-19T00:24:27;1.73;;;1.60;;
17451;SDS011;8843;48.838;9.324;2023-11-19T00:26:54;1.70;;;1.60;;
17451;SDS011;8843;48.838;9.324;2023-11-19T00:29:21;1.50;;;1.40;;
17451;SDS011;8843;48.838;9.324;2023-11-19T00:31:49;2.60;;;1.50;;
17451;SDS011;8843;48.838;9.324;2023-11-19T00:34:17;1.73;;;1.63;;
17451;SDS011;8843;48.838;9.324;2023-11-19T00:36:46;1.93;;;1.70;;
17451;SDS011;8843;48.838;9.324;2023-11-19T00:39:13;2.20;;;1.90;;
17451;SDS011;8843;48.838;9.324;2023-11-19T00:41:41;1.93;;;1.80;;
17451;SDS011;8843;48.838;9.324;2023-11-19T00:44:08;1.70;;;1.60;;
17451;SDS011;8843;48.838;9.324;2023-11-19T00:46:35;1.70;;;1.60;;
17451;SDS011;8843;48.838;9.324;2023-11-19T00:49:03;2.47;;;1.83;;
17451;SDS011;8843;48.838;9.324;2023-11-19T00:51:30;2.77;;;1.87;;
17451;SDS011;8843;48.838;9.324;2023-11-19T00:53:57;4.57;;;2.10;;
17451;SDS011;8843;48.838;9.324;2023-11-19T00:56:25;5.17;;;2.00;;
17451;SDS011;8843;48.838;9.324;2023-11-19T00:58:53;2.03;;;1.80;;
17451;SDS011;8843;48.838;9.324;2023-11-19T01:01:21;2.20;;;1.63;;
17451;SDS011;8843;48.838;9.324;2023-11-19T01:03:47;2.50;;;1.70;;
17451;SDS011;8843;48.838;9.324;2023-11-19T01:06:16;2.57;;;1.73;;
17451;SDS011;8843;48.838;9.324;2023-11-19T01:08:53;1.80;;;1.30;;
17451;SDS011;8843;48.838;9.324;2023-11-19T01:11:21;3.50;;;2.00;;
17451;SDS011;8843;48.838;9.324;2023-11-19T01:13:49;2.30;;;2.10;;
17451;SDS011;8843;48.838;9.324;2023-11-19T01:16:16;2.03;;;1.83;;
17451;SDS011;8843;48.838;9.324;2023-11-19T01:18:43;1.63;;;1.53;;
17451;SDS011;8843;48.838;9.324;2023-11-19T01:21:11;1.70;;;1.60;;
17451;SDS011;8843;48.838;9.324;2023-11-19T01:23:41;1.90;;;1.70;;
17451;SDS011;8843;48.838;9.324;2023-11-19T01:26:09;1.93;;;1.83;;
17451;SDS011;8843;48.838;9.324;2023-11-19T01:28:37;1.80;;;1.50;;
17451;SDS011;8843;48.838;9.324;2023-11-19T01:31:10;1.77;;;1.67;;
17451;SDS011;8843;48.838;9.324;2023-11-19T01:33:37;1.60;;;1.50;;
17451;SDS011;8843;48.838;9.324;2023-11-19T01:36:05;2.23;;;1.57;;
17451;SDS011;8843;48.838;9.324;2023-11-19T01:38:33;1.70;;;1.60;;
17451;SDS011;8843;48.838;9.324;2023-11-19T01:41:01;1.57;;;1.40;;
17451;SDS011;8843;48.838;9.324;2023-11-19T01:43:32;1.67;;;1.57;;
17451;SDS011;8843;48.838;9.324;2023-11-19T01:46:00;1.60;;;1.50;;
17451;SDS011;8843;48.838;9.324;2023-11-19T01:48:27;2.90;;;1.30;;
17451;SDS011;8843;48.838;9.324;2023-11-19T01:50:54;1.23;;;1.23;;
17451;SDS011;8843;48.838;9.324;2023-11-19T01:53:22;1.53;;;1.40;;
17451;SDS011;8843;48.838;9.324;2023-11-19T01:55:49;3.10;;;1.63;;
17451;SDS011;8843;48.838;9.324;2023-11-19T01:58:18;1.90;;;1.80;;
17451;SDS011;8843;48.838;9.324;2023-11-19T02:00:45;1.83;;;1.67;;
17451;SDS011;8843;48.838;9.324;2023-11-19T02:03:14;2.17;;;1.50;;
17451;SDS011;8843;48.838;9.324;2023-11-19T02:05:41;2.23;;;1.70;;
17451;SDS011;8843;48.838;9.324;2023-11-19T02:08:08;1.50;;;1.40;;
17451;SDS011;8843;48.838;9.324;2023-11-19T02:10:35;1.50;;;1.40;;
17451;SDS011;8843;48.838;9.324;2023-11-19T02:13:02;1.80;;;1.70;;
17451;SDS011;8843;48.838;9.324;2023-11-19T02:15:32;1.90;;;1.70;;
17451;SDS011;8843;48.838;9.324;2023-11-19T02:20:44;1.73;;;1.63;;
17451;SDS011;8843;48.838;9.324;2023-11-19T02:25:39;1.90;;;1.80;;
17451;SDS011;8843;48.838;9.324;2023-11-19T02:28:08;1.70;;;1.60;;
17451;SDS011;8843;48.838;9.324;2023-11-19T02:30:37;3.37;;;2.00;;
17451;SDS011;8843;48.838;9.324;2023-11-19T02:33:04;3.10;;;1.50;;
17451;SDS011;8843;48.838;9.324;2023-11-19T02:35:31;2.17;;;1.67;;
17451;SDS011;8843;48.838;9.324;2023-11-19T02:37:59;1.63;;;1.53;;
17451;SDS011;8843;48.838;9.324;2023-11-19T02:40:26;2.57;;;2.07;;
17451;SDS011;8843;48.838;9.324;2023-11-19T02:42:54;2.33;;;1.80;;
17451;SDS011;8843;48.838;9.324;2023-11-19T02:45:22;2.30;;;1.93;;
17451;SDS011;8843;48.838;9.324;2023-11-19T02:47:50;2.00;;;1.83;;
17451;SDS011;8843;48.838;9.324;2023-11-19T02:50:17;4.00;;;1.40;;
17451;SDS011;8843;48.838;9.324;2023-11-19T02:52:50;2.10;;;1.90;;
17451;SDS011;8843;48.838;9.324;2023-11-19T02:55:18;2.80;;;1.80;;
17451;SDS011;8843;48.838;9.324;2023-11-19T02:57:45;2.23;;;1.80;;
17451;SDS011;8843;48.838;9.324;2023-11-19T03:00:14;2.07;;;1.90;;
17451;SDS011;8843;48.838;9.324;2023-11-19T03:02:43;3.90;;;2.00;;
17451;SDS011;8843;48.838;9.324;2023-11-19T03:05:13;1.70;;;1.60;;
17451;SDS011;8843;48.838;9.324;2023-11-19T03:07:41;1.70;;;1.60;;
17451;SDS011;8843;48.838;9.324;2023-11-19T03:10:09;1.60;;;1.50;;
17451;SDS011;8843;48.838;9.324;2023-11-19T03:12:39;2.23;;;1.57;;
17451;SDS011;8843;48.838;9.324;2023-11-19T03:15:06;2.23;;;1.80;;
17451;SDS011;8843;48.838;9.324;2023-11-19T03:17:35;1.77;;;1.53;;
17451;SDS011;8843;48.838;9.324;2023-11-19T03:20:04;1.97;;;1.73;;
17451;SDS011;8843;48.838;9.324;2023-11-19T03:22:34;2.03;;;1.83;;
17451;SDS011;8843;48.838;9.324;2023-11-19T03:25:03;2.43;;;1.47;;
17451;SDS011;8843;48.838;9.324;2023-11-19T03:27:33;3.53;;;2.10;;
17451;SDS011;8843;48.838;9.324;2023-11-19T03:30:00;2.23;;;2.00;;
17451;SDS011;8843;48.838;9.324;2023-11-19T03:32:29;1.80;;;1.70;;
17451;SDS011;8843;48.838;9.324;2023-11-19T03:34:56;1.87;;;1.63;;
17451;SDS011;8843;48.838;9.324;2023-11-19T03:37:25;1.70;;;1.60;;
17451;SDS011;8843;48.838;9.324;2023-11-19T03:39:53;1.80;;;1.70;;
17451;SDS011;8843;48.838;9.324;2023-11-19T03:42:20;1.60;;;1.50;;
17451;SDS011;8843;48.838;9.324;2023-11-19T03:44:47;1.47;;;1.37;;
17451;SDS011;8843;48.838;9.324;2023-11-19T03:47:15;1.50;;;1.40;;
17451;SDS011;8843;48.838;9.324;2023-11-19T03:49:42;1.60;;;1.50;;
17451;SDS011;8843;48.838;9.324;2023-11-19T03:52:13;1.70;;;1.60;;
17451;SDS011;8843;48.838;9.324;2023-11-19T03:54:41;1.70;;;1.60;;
17451;SDS011;8843;48.838;9.324;2023-11-19T03:57:08;1.93;;;1.70;;
17451;SDS011;8843;48.838;9.324;2023-11-19T03:59:37;1.50;;;1.40;;
17451;SDS011;8843;48.838;9.324;2023-11-19T04:02:04;3.10;;;1.20;;
17451;SDS011;8843;48.838;9.324;2023-11-19T04:04:31;1.80;;;1.70;;
17451;SDS011;8843;48.838;9.324;2023-11-19T04:06:58;1.53;;;1.43;;
17451;SDS011;8843;48.838;9.324;2023-11-19T04:09:28;1.87;;;1.30;;
17451;SDS011;8843;48.838;9.324;2023-11-19T04:11:56;1.30;;;1.20;;
17451;SDS011;8843;48.838;9.324;2023-11-19T04:14:23;1.53;;;1.43;;
17451;SDS011;8843;48.838;9.324;2023-11-19T04:16:50;2.33;;;1.57;;
17451;SDS011;8843;48.838;9.324;2023-11-19T04:19:17;1.40;;;1.30;;
17451;SDS011;8843;48.838;9.324;2023-11-19T04:21:44;1.60;;;1.50;;
17451;SDS011;8843;48.838;9.324;2023-11-19T04:24:10;1.70;;;1.60;;
17451;SDS011;8843;48.838;9.324;2023-11-19T04:26:40;2.17;;;1.40;;
17451;SDS011;8843;48.838;9.324;2023-11-19T04:29:09;1.37;;;1.20;;
17451;SDS011;8843;48.838;9.324;2023-11-19T04:31:37;1.17;;;1.07;;
17451;SDS011;8843;48.838;9.324;2023-11-19T04:34:04;1.50;;;1.40;;
17451;SDS011;8843;48.838;9.324;2023-11-19T04:36:32;1.40;;;1.30;;
17451;SDS011;8843;48.838;9.324;2023-11-19T04:38:59;1.37;;;1.27;;
17451;SDS011;8843;48.838;9.324;2023-11-19T04:41:26;1.27;;;1.20;;
17451;SDS011;8843;48.838;9.324;2023-11-19T04:43:53;1.30;;;1.17;;
17451;SDS011;8843;48.838;9.324;2023-11-19T04:46:22;1.53;;;1.40;;
17451;SDS011;8843;48.838;9.324;2023-11-19T04:48:49;1.13;;;1.10;;
17451;SDS011;8843;48.838;9.324;2023-11-19T04:51:16;2.10;;;1.10;;
17451;SDS011;8843;48.838;9.324;2023-11-19T04:53:43;2.67;;;1.17;;
17451;SDS011;8843;48.838;9.324;2023-11-19T04:56:10;1.10;;;1.00;;
17451;SDS011;8843;48.838;9.324;2023-11-19T04:58:38;1.40;;;0.90;;
17451;SDS011;8843;48.838;9.324;2023-11-19T05:01:05;1.00;;;1.00;;
17451;SDS011;8843;48.838;9.324;2023-11-19T05:03:33;2.60;;;1.20;;
17451;SDS011;8843;48.838;9.324;2023-11-19T05:06:01;1.43;;;1.10;;
17451;SDS011;8843;48.838;9.324;2023-11-19T05:08:28;1.47;;;1.27;;
17451;SDS011;8843;48.838;9.324;2023-11-19T05:10:55;1.00;;;1.00;;
17451;SDS011;8843;48.838;9.324;2023-11-19T05:13:22;2.20;;;1.20;;
17451;SDS011;8843;48.838;9.324;2023-11-19T05:15:49;1.17;;;1.13;;
17451;SDS011;8843;48.838;9.324;2023-11-19T05:18:17;1.30;;;1.20;;
17451;SDS011;8843;48.838;9.324;2023-11-19T05:20:45;1.27;;;1.17;;
17451;SDS011;8843;48.838;9.324;2023-11-19T05:23:12;1.30;;;1.20;;
17451;SDS011;8843;48.838;9.324;2023-11-19T05:25:39;1.00;;;1.00;;
17451;SDS011;8843;48.838;9.324;2023-11-19T05:28:06;0.70;;;0.70;;
17451;SDS011;8843;48.838;9.324;2023-11-19T05:30:33;1.03;;;1.00;;
17451;SDS011;8843;48.838;9.324;2023-11-19T05:33:00;1.50;;;0.70;;
17451;SDS011;8843;48.838;9.324;2023-11-19T05:35:27;0.70;;;0.70;;
17451;SDS011;8843;48.838;9.324;2023-11-19T05:37:55;0.80;;;0.80;;
17451;SDS011;8843;48.838;9.324;2023-11-19T05:40:22;2.07;;;1.80;;
17451;SDS011;8843;48.838;9.324;2023-11-19T05:42:49;0.77;;;0.77;;
17451;SDS011;8843;48.838;9.324;2023-11-19T05:45:15;0.60;;;0.60;;
17451;SDS011;8843;48.838;9.324;2023-11-19T05:47:42;1.57;;;0.70;;
17451;SDS011;8843;48.838;9.324;2023-11-19T05:50:10;0.70;;;0.70;;
17451;SDS011;8843;48.838;9.324;2023-11-19T05:52:37;0.80;;;0.80;;
17451;SDS011;8843;48.838;9.324;2023-11-19T05:55:05;0.50;;;0.50;;
17451;SDS011;8843;48.838;9.324;2023-11-19T05:57:35;0.73;;;0.73;;
17451;SDS011;8843;48.838;9.324;2023-11-19T06:00:02;1.17;;;0.80;;
17451;SDS011;8843;48.838;9.324;2023-11-19T06:02:32;0.83;;;0.80;;
17451;SDS011;8843;48.838;9.324;2023-11-19T06:04:59;0.90;;;0.90;;
17451;SDS011;8843;48.838;9.324;2023-11-19T06:07:26;0.63;;;0.63;;
17451;SDS011;8843;48.838;9.324;2023-11-19T06:09:53;1.10;;;0.80;;
17451;SDS011;8843;48.838;9.324;2023-11-19T06:12:21;0.60;;;0.60;;
17451;SDS011;8843;48.838;9.324;2023-11-19T06:14:48;0.83;;;0.70;;
17451;SDS011;8843;48.838;9.324;2023-11-19T06:17:15;0.77;;;0.77;;
17451;SDS011;8843;48.838;9.324;2023-11-19T06:19:42;0.70;;;0.70;;
17451;SDS011;8843;48.838;9.324;2023-11-19T06:22:10;0.80;;;0.80;;
17451;SDS011;8843;48.838;9.324;2023-11-19T06:24:37;1.90;;;1.47;;
17451;SDS011;8843;48.838;9.324;2023-11-19T06:27:03;0.70;;;0.70;;
17451;SDS011;8843;48.838;9.324;2023-11-19T06:29:32;0.80;;;0.80;;
17451;SDS011;8843;48.838;9.324;2023-11-19T06:31:58;0.60;;;0.60;;
17451;SDS011;8843;48.838;9.324;2023-11-19T06:34:25;0.67;;;0.67;;
17451;SDS011;8843;48.838;9.324;2023-11-19T06:36:53;1.70;;;0.80;;
17451;SDS011;8843;48.838;9.324;2023-11-19T06:39:20;1.27;;;0.60;;
17451;SDS011;8843;48.838;9.324;2023-11-19T06:41:47;0.70;;;0.70;;
17451;SDS011;8843;48.838;9.324;2023-11-19T06:44:14;0.80;;;0.80;;
17451;SDS011;8843;48.838;9.324;2023-11-19T06:46:42;0.70;;;0.70;;
17451;SDS011;8843;48.838;9.324;2023-11-19T06:49:09;0.80;;;0.80;;
17451;SDS011;8843;48.838;9.324;2023-11-19T06:51:41;0.77;;;0.77;;
17451;SDS011;8843;48.838;9.324;2023-11-19T06:54:12;0.60;;;0.60;;
17451;SDS011;8843;48.838;9.324;2023-11-19T06:56:54;0.77;;;0.70;;
17451;SDS011;8843;48.838;9.324;2023-11-19T06:59:28;0.70;;;0.70;;
17451;SDS011;8843;48.838;9.324;2023-11-19T07:02:26;0.90;;;0.90;;
17451;SDS011;8843;48.838;9.324;2023-11-19T07:04:56;0.80;;;0.80;;
17451;SDS011;8843;48.838;9.324;2023-11-19T07:07:39;0.73;;;0.73;;
17451;SDS011;8843;48.838;9.324;2023-11-19T07:10:12;0.70;;;0.70;;
17451;SDS011;8843;48.838;9.324;2023-11-19T07:13:04;0.90;;;0.90;;
17451;SDS011;8843;48.838;9.324;2023-11-19T07:15:38;0.70;;;0.70;;
17451;SDS011;8843;48.838;9.324;2023-11-19T07:18:06;0.70;;;0.70;;
17451;SDS011;8843;48.838;9.324;2023-11-19T07:20:33;1.70;;;0.77;;
17451;SDS011;8843;48.838;9.324;2023-11-19T07:23:00;1.33;;;0.73;;
17451;SDS011;8843;48.838;9.324;2023-11-19T07:25:27;0.77;;;0.77;;
17451;SDS011;8843;48.838;9.324;2023-11-19T07:27:54;0.97;;;0.70;;
17451;SDS011;8843;48.838;9.324;2023-11-19T07:30:21;0.70;;;0.70;;
17451;SDS011;8843;48.838;9.324;2023-11-19T07:32:48;2.53;;;0.83;;
17451;SDS011;8843;48.838;9.324;2023-11-19T07:35:16;0.70;;;0.70;;
17451;SDS011;8843;48.838;9.324;2023-11-19T07:37:43;1.17;;;0.70;;
17451;SDS011;8843;48.838;9.324;2023-11-19T07:40:13;1.07;;;0.70;;
17451;SDS011;8843;48.838;9.324;2023-11-19T07:42:39;0.83;;;0.83;;
17451;SDS011;8843;48.838;9.324;2023-11-19T07:45:06;0.80;;;0.80;;
17451;SDS011;8843;48.838;9.324;2023-11-19T07:47:34;0.87;;;0.87;;
17451;SDS011;8843;48.838;9.324;2023-11-19T07:50:01;1.93;;;0.93;;
17451;SDS011;8843;48.838;9.324;2023-11-19T07:52:30;1.43;;;0.80;;
17451;SDS011;8843;48.838;9.324;2023-11-19T07:54:57;0.70;;;0.70;;
17451;SDS011;8843;48.838;9.324;2023-11-19T07:57:23;0.97;;;0.70;;
17451;SDS011;8843;48.838;9.324;2023-11-19T07:59:52;0.90;;;0.90;;
17451;SDS011;8843;48.838;9.324;2023-11-19T08:02:19;0.80;;;0.80;;
17451;SDS011;8843;48.838;9.324;2023-11-19T08:04:46;1.07;;;1.03;;
17451;SDS011;8843;48.838;9.324;2023-11-19T08:07:16;1.20;;;1.10;;
17451;SDS011;8843;48.838;9.324;2023-11-19T08:09:45;1.20;;;1.10;;
17451;SDS011;8843;48.838;9.324;2023-11-19T08:12:12;3.30;;;1.30;;
17451;SDS011;8843;48.838;9.324;2023-11-19T08:14:39;1.90;;;1.23;;
17451;SDS011;8843;48.838;9.324;2023-11-19T08:17:06;2.67;;;2.10;;
17451;SDS011;8843;48.838;9.324;2023-11-19T08:19:33;1.40;;;1.30;;
17451;SDS011;8843;48.838;9.324;2023-11-19T08:22:00;1.07;;;0.97;;
17451;SDS011;8843;48.838;9.324;2023-11-19T08:24:27;1.00;;;1.00;;
17451;SDS011;8843;48.838;9.324;2023-11-19T08:29:58;1.10;;;1.10;;
17451;SDS011;8843;48.838;9.324;2023-11-19T08:32:36;1.00;;;1.00;;
17451;SDS011;8843;48.838;9.324;2023-11-19T08:35:07;2.30;;;1.00;;
17451;SDS011;8843;48.838;9.324;2023-11-19T08:37:34;2.03;;;0.83;;
17451;SDS011;8843;48.838;9.324;2023-11-19T08:40:01;1.20;;;1.10;;
17451;SDS011;8843;48.838;9.324;2023-11-19T08:42:32;1.90;;;1.07;;
17451;SDS011;8843;48.838;9.324;2023-11-19T08:45:00;2.27;;;1.60;;
17451;SDS011;8843;48.838;9.324;2023-11-19T08:47:27;0.80;;;0.80;;
17451;SDS011;8843;48.838;9.324;2023-11-19T08:49:54;1.20;;;1.10;;
17451;SDS011;8843;48.838;9.324;2023-11-19T08:52:21;1.20;;;1.10;;
17451;SDS011;8843;48.838;9.324;2023-11-19T08:54:48;1.10;;;1.10;;
17451;SDS011;8843;48.838;9.324;2023-11-19T08:57:14;0.97;;;0.90;;
17451;SDS011;8843;48.838;9.324;2023-11-19T08:59:41;3.00;;;1.10;;
17451;SDS011;8843;48.838;9.324;2023-11-19T09:02:12;1.27;;;1.17;;
17451;SDS011;8843;48.838;9.324;2023-11-19T09:04:39;1.10;;;1.10;;
17451;SDS011;8843;48.838;9.324;2023-11-19T09:07:06;2.23;;;1.00;;
17451;SDS011;8843;48.838;9.324;2023-11-19T09:09:34;1.90;;;1.60;;
17451;SDS011;8843;48.838;9.324;2023-11-19T09:12:01;1.40;;;1.30;;
17451;SDS011;8843;48.838;9.324;2023-11-19T09:14:29;1.40;;;1.30;;
17451;SDS011;8843;48.838;9.324;2023-11-19T09:16:56;1.50;;;1.40;;
17451;SDS011;8843;48.838;9.324;2023-11-19T09:19:25;1.13;;;1.03;;
17451;SDS011;8843;48.838;9.324;2023-11-19T09:21:54;1.30;;;1.20;;
17451;SDS011;8843;48.838;9.324;2023-11-19T09:24:24;1.77;;;1.20;;
17451;SDS011;8843;48.838;9.324;2023-11-19T09:26:51;1.50;;;1.23;;
17451;SDS011;8843;48.838;9.324;2023-11-19T09:29:19;2.60;;;1.47;;
17451;SDS011;8843;48.838;9.324;2023-11-19T09:31:46;3.00;;;1.70;;
17451;SDS011;8843;48.838;9.324;2023-11-19T09:34:13;2.13;;;1.50;;
17451;SDS011;8843;48.838;9.324;2023-11-19T09:36:42;2.13;;;1.50;;
17451;SDS011;8843;48.838;9.324;2023-11-19T09:39:10;1.40;;;1.30;;
17451;SDS011;8843;48.838;9.324;2023-11-19T09:41:39;2.07;;;1.53;;
17451;SDS011;8843;48.838;9.324;2023-11-19T09:44:06;1.37;;;1.30;;
17451;SDS011;8843;48.838;9.324;2023-11-19T09:46:32;2.40;;;1.50;;
17451;SDS011;8843;48.838;9.324;2023-11-19T09:49:00;2.83;;;1.60;;
17451;SDS011;8843;48.838;9.324;2023-11-19T09:51:29;1.73;;;1.50;;
17451;SDS011;8843;48.838;9.324;2023-11-19T09:53:57;2.50;;;1.80;;
17451;SDS011;8843;48.838;9.324;2023-11-19T09:56:24;2.70;;;1.83;;
17451;SDS011;8843;48.838;9.324;2023-11-19T09:58:52;2.67;;;1.93;;
17451;SDS011;8843;48.838;9.324;2023-11-19T10:01:19;2.20;;;1.60;;
17451;SDS011;8843;48.838;9.324;2023-11-19T10:03:47;1.77;;;1.57;;
17451;SDS011;8843;48.838;9.324;2023-11-19T10:06:16;3.30;;;1.60;;
17451;SDS011;8843;48.838;9.324;2023-11-19T10:08:45;4.70;;;1.77;;
17451;SDS011;8843;48.838;9.324;2023-11-19T10:11:34;5.10;;;1.90;;
17451;SDS011;8843;48.838;9.324;2023-11-19T10:14:05;4.93;;;1.90;;
17451;SDS011;8843;48.838;9.324;2023-11-19T10:16:34;4.87;;;1.90;;
17451;SDS011;8843;48.838;9.324;2023-11-19T10:19:01;2.40;;;2.20;;
17451;SDS011;8843;48.838;9.324;2023-11-19T10:21:28;2.73;;;1.97;;
17451;SDS011;8843;48.838;9.324;2023-11-19T10:23:58;3.23;;;2.20;;
17451;SDS011;8843;48.838;9.324;2023-11-19T10:26:26;2.57;;;2.10;;
17451;SDS011;8843;48.838;9.324;2023-11-19T10:28:54;5.07;;;2.83;;
17451;SDS011;8843;48.838;9.324;2023-11-19T10:31:22;3.60;;;2.27;;
17451;SDS011;8843;48.838;9.324;2023-11-19T10:33:50;4.83;;;2.80;;
17451;SDS011;8843;48.838;9.324;2023-11-19T10:36:17;3.80;;;2.30;;
17451;SDS011;8843;48.838;9.324;2023-11-19T10:38:51;5.53;;;2.37;;
17451;SDS011;8843;48.838;9.324;2023-11-19T10:41:28;3.60;;;2.40;;
17451;SDS011;8843;48.838;9.324;2023-11-19T10:43:57;4.40;;;2.60;;
17451;SDS011;8843;48.838;9.324;2023-11-19T10:46:24;3.90;;;2.30;;
17451;SDS011;8843;48.838;9.324;2023-11-19T10:49:03;4.70;;;2.60;;
17451;SDS011;8843;48.838;9.324;2023-11-19T10:51:30;4.27;;;2.77;;
17451;SDS011;8843;48.838;9.324;2023-11-19T10:53:59;5.67;;;3.03;;
17451;SDS011;8843;48.838;9.324;2023-11-19T10:56:29;3.20;;;2.70;;
17451;SDS011;8843;48.838;9.324;2023-11-19T10:59:00;4.67;;;2.60;;
17451;SDS011;8843;48.838;9.324;2023-11-19T11:01:31;4.10;;;2.47;;
17451;SDS011;8843;48.838;9.324;2023-11-19T11:04:06;4.87;;;2.63;;
17451;SDS011;8843;48.838;9.324;2023-11-19T11:06:39;4.30;;;2.93;;
17451;SDS011;8843;48.838;9.324;2023-11-19T11:09:06;9.50;;;3.00;;
17451;SDS011;8843;48.838;9.324;2023-11-19T11:11:37;4.37;;;2.77;;
17451;SDS011;8843;48.838;9.324;2023-11-19T11:14:05;8.87;;;2.67;;
17451;SDS011;8843;48.838;9.324;2023-11-19T11:16:34;7.77;;;2.70;;
17451;SDS011;8843;48.838;9.324;2023-11-19T11:19:02;4.67;;;3.10;;
17451;SDS011;8843;48.838;9.324;2023-11-19T11:21:29;3.13;;;2.83;;
17451;SDS011;8843;48.838;9.324;2023-11-19T11:24:01;8.63;;;2.93;;
17451;SDS011;8843;48.838;9.324;2023-11-19T11:27:02;7.27;;;2.70;;
17451;SDS011;8843;48.838;9.324;2023-11-19T11:29:47;9.47;;;3.70;;
17451;SDS011;8843;48.838;9.324;2023-11-19T11:32:25;5.43;;;3.00;;
17451;SDS011;8843;48.838;9.324;2023-11-19T11:35:03;5.20;;;2.60;;
17451;SDS011;8843;48.838;9.324;2023-11-19T11:37:44;7.87;;;3.30;;
17451;SDS011;8843;48.838;9.324;2023-11-19T11:40:13;5.17;;;2.90;;
17451;SDS011;8843;48.838;9.324;2023-11-19T11:42:41;5.83;;;2.83;;
17451;SDS011;8843;48.838;9.324;2023-11-19T11:45:09;5.80;;;3.67;;
17451;SDS011;8843;48.838;9.324;2023-11-19T11:50:49;8.87;;;3.27;;
17451;SDS011;8843;48.838;9.324;2023-11-19T11:53:21;7.33;;;3.03;;
17451;SDS011;8843;48.838;9.324;2023-11-19T11:55:55;9.93;;;4.40;;
17451;SDS011;8843;48.838;9.324;2023-11-19T11:58:29;7.13;;;3.47;;
17451;SDS011;8843;48.838;9.324;2023-11-19T12:01:04;5.20;;;3.63;;
17451;SDS011;8843;48.838;9.324;2023-11-19T12:03:34;10.13;;;3.67;;
17451;SDS011;8843;48.838;9.324;2023-11-19T12:06:04;5.87;;;3.47;;
17451;SDS011;8843;48.838;9.324;2023-11-19T12:08:33;5.97;;;3.00;;
17451;SDS011;8843;48.838;9.324;2023-11-19T12:11:01;6.50;;;3.57;;
17451;SDS011;8843;48.838;9.324;2023-11-19T12:13:48;5.43;;;2.80;;
17451;SDS011;8843;48.838;9.324;2023-11-19T12:16:22;8.30;;;3.83;;
17451;SDS011;8843;48.838;9.324;2023-11-19T12:18:49;7.43;;;3.13;;
17451;SDS011;8843;48.838;9.324;2023-11-19T12:21:29;4.80;;;3.00;;
17451;SDS011;8843;48.838;9.324;2023-11-19T12:23:58;6.30;;;3.77;;
17451;SDS011;8843;48.838;9.324;2023-11-19T12:26:31;6.30;;;3.27;;
17451;SDS011;8843;48.838;9.324;2023-11-19T12:29:00;9.07;;;3.70;;
17451;SDS011;8843;48.838;9.324;2023-11-19T12:31:30;8.47;;;3.33;;
17451;SDS011;8843;48.838;9.324;2023-11-19T12:33:57;7.10;;;3.63;;
17451;SDS011;8843;48.838;9.324;2023-11-19T12:36:25;11.07;;;5.67;;
17451;SDS011;8843;48.838;9.324;2023-11-19T12:38:52;7.23;;;4.33;;
17451;SDS011;8843;48.838;9.324;2023-11-19T12:41:19;8.47;;;4.27;;
17451;SDS011;8843;48.838;9.324;2023-11-19T12:43:48;9.53;;;4.33;;
17451;SDS011;8843;48.838;9.324;2023-11-19T12:46:18;4.53;;;3.33;;
17451;SDS011;8843;48.838;9.324;2023-11-19T12:48:48;7.40;;;3.30;;
17451;SDS011;8843;48.838;9.324;2023-11-19T12:51:15;7.70;;;3.13;;
17451;SDS011;8843;48.838;9.324;2023-11-19T12:53:48;5.73;;;3.13;;
17451;SDS011;8843;48.838;9.324;2023-11-19T12:56:18;9.53;;;4.17;;
17451;SDS011;8843;48.838;9.324;2023-11-19T12:58:44;6.53;;;3.00;;
17451;SDS011;8843;48.838;9.324;2023-11-19T13:01:15;5.33;;;3.00;;
17451;SDS011;8843;48.838;9.324;2023-11-19T13:03:44;5.87;;;3.20;;
17451;SDS011;8843;48.838;9.324;2023-11-19T13:06:13;6.17;;;3.17;;
17451;SDS011;8843;48.838;9.324;2023-11-19T13:08:41;4.20;;;3.30;;
17451;SDS011;8843;48.838;9.324;2023-11-19T13:11:09;10.13;;;3.20;;
17451;SDS011;8843;48.838;9.324;2023-11-19T13:13:56;8.83;;;3.50;;
17451;SDS011;8843;48.838;9.324;2023-11-19T13:16:24;6.20;;;3.40;;
17451;SDS011;8843;48.838;9.324;2023-11-19T13:18:51;4.47;;;3.43;;
17451;SDS011;8843;48.838;9.324;2023-11-19T13:21:19;5.43;;;3.70;;
17451;SDS011;8843;48.838;9.324;2023-11-19T13:23:50;8.70;;;3.50;;
17451;SDS011;8843;48.838;9.324;2023-11-19T13:26:35;4.57;;;3.57;;
17451;SDS011;8843;48.838;9.324;2023-11-19T13:29:09;8.53;;;4.00;;
17451;SDS011;8843;48.838;9.324;2023-11-19T13:31:38;9.83;;;3.90;;
17451;SDS011;8843;48.838;9.324;2023-11-19T13:34:04;6.27;;;3.47;;
17451;SDS011;8843;48.838;9.324;2023-11-19T13:36:34;6.83;;;3.00;;
17451;SDS011;8843;48.838;9.324;2023-11-19T13:39:01;6.13;;;2.73;;
17451;SDS011;8843;48.838;9.324;2023-11-19T13:41:32;8.30;;;2.80;;
17451;SDS011;8843;48.838;9.324;2023-11-19T13:43:59;4.50;;;2.77;;
17451;SDS011;8843;48.838;9.324;2023-11-19T13:46:28;5.73;;;3.10;;
17451;SDS011;8843;48.838;9.324;2023-11-19T13:48:57;6.57;;;3.43;;
17451;SDS011;8843;48.838;9.324;2023-11-19T13:51:36;8.87;;;3.67;;
17451;SDS011;8843;48.838;9.324;2023-11-19T13:54:05;8.17;;;3.60;;
17451;SDS011;8843;48.838;9.324;2023-11-19T13:56:32;8.33;;;3.70;;
17451;SDS011;8843;48.838;9.324;2023-11-19T13:59:00;6.20;;;3.10;;
17451;SDS011;8843;48.838;9.324;2023-11-19T14:01:30;8.10;;;3.60;;
17451;SDS011;8843;48.838;9.324;2023-11-19T14:03:57;6.43;;;3.60;;
17451;SDS011;8843;48.838;9.324;2023-11-19T14:06:24;22.77;;;3.67;;
17451;SDS011;8843;48.838;9.324;2023-11-19T14:08:52;7.93;;;3.53;;
17451;SDS011;8843;48.838;9.324;2023-11-19T14:11:19;4.73;;;3.50;;
17451;SDS011;8843;48.838;9.324;2023-11-19T14:13:45;9.20;;;3.27;;
17451;SDS011;8843;48.838;9.324;2023-11-19T14:16:14;6.33;;;3.43;;
17451;SDS011;8843;48.838;9.324;2023-11-19T14:18:41;5.13;;;3.20;;
17451;SDS011;8843;48.838;9.324;2023-11-19T14:21:08;8.43;;;3.43;;
17451;SDS011;8843;48.838;9.324;2023-11-19T14:23:35;7.37;;;2.30;;
17451;SDS011;8843;48.838;9.324;2023-11-19T14:26:03;3.37;;;2.40;;
17451;SDS011;8843;48.838;9.324;2023-11-19T14:28:31;7.37;;;2.80;;
17451;SDS011;8843;48.838;9.324;2023-11-19T14:30:57;7.30;;;2.60;;
17451;SDS011;8843;48.838;9.324;2023-11-19T14:33:24;4.33;;;2.40;;
17451;SDS011;8843;48.838;9.324;2023-11-19T14:35:51;4.23;;;2.50;;
17451;SDS011;8843;48.838;9.324;2023-11-19T14:38:18;6.80;;;3.13;;
17451;SDS011;8843;48.838;9.324;2023-11-19T14:40:45;6.63;;;2.90;;
17451;SDS011;8843;48.838;9.324;2023-11-19T14:43:14;6.53;;;2.97;;
17451;SDS011;8843;48.838;9.324;2023-11-19T14:45:41;3.53;;;2.70;;
17451;SDS011;8843;48.838;9.324;2023-11-19T14:48:08;7.43;;;2.87;;
17451;SDS011;8843;48.838;9.324;2023-11-19T14:50:35;5.60;;;3.47;;
17451;SDS011;8843;48.838;9.324;2023-11-19T14:53:02;4.87;;;2.63;;
17451;SDS011;8843;48.838;9.324;2023-11-19T14:55:29;4.00;;;2.90;;
17451;SDS011;8843;48.838;9.324;2023-11-19T14:57:56;5.53;;;2.60;;
17451;SDS011;8843;48.838;9.324;2023-11-19T15:00:24;6.47;;;2.80;;
17451;SDS011;8843;48.838;9.324;2023-11-19T15:02:51;5.50;;;2.67;;
17451;SDS011;8843;48.838;9.324;2023-11-19T15:05:18;4.37;;;2.30;;
17451;SDS011;8843;48.838;9.324;2023-11-19T15:07:45;3.97;;;2.40;;
17451;SDS011;8843;48.838;9.324;2023-11-19T15:10:13;5.23;;;2.80;;
17451;SDS011;8843;48.838;9.324;2023-11-19T15:12:40;4.50;;;2.40;;
17451;SDS011;8843;48.838;9.324;2023-11-19T15:15:07;4.10;;;2.27;;
17451;SDS011;8843;48.838;9.324;2023-11-19T15:17:40;5.50;;;2.97;;
17451;SDS011;8843;48.838;9.324;2023-11-19T15:20:07;7.33;;;2.60;;
17451;SDS011;8843;48.838;9.324;2023-11-19T15:22:35;4.03;;;2.20;;